Terminal Aerodrome Forecast
Issued by NWS Cleveland, OH

Home | Current Version | Previous Version | Text Only | Print | Product List | Glossary On
Versions: 1 2 3 4 5 6 7 8 9 10 11 12 13 14
000
FTUS41 KCLE 041100
TAFCAK
TAF
KCAK 041127Z 0412/0512 19008KT P6SM FEW100 SCT250
     FM041500 22012G20KT P6SM SCT050 BKN100
     FM042200 22012G20KT P6SM VCTS OVC050CB
      TEMPO 0500/0502 1 1/2SM -TSRA BR BKN025CB OVC035
     FM050300 22008KT P6SM VCSH SCT025 OVC035=

USA.gov is the U.S. government's official web portal to all federal, state and local government web resources and services.